Time;durP1;ratioP1;P1;durP2;ratioP2;P2;SDS_P1;SDS_P2;PMS_P1;PMS_P2;Temp;Humidity;BMP_temperature;BMP_pressure;BME280_temperature;BME280_humidity;BME280_pressure;Samples;Min_cycle;Max_cycle;Signal;HPM_P1;HPM_P2
2023/07/11 00:00:00;;;;;;;0.10;0.10;;;17.50;1.00;;;;;;4829255;29;20089;-87
2023/07/11 00:02:26;;;;;;;0.20;0.20;;;17.50;1.00;;;;;;4830342;29;20046;-87
2023/07/11 00:04:52;;;;;;;0.17;0.17;;;17.50;4.10;;;;;;4816025;29;20057;-87
2023/07/11 00:07:17;;;;;;;0.25;0.25;;;17.50;5.20;;;;;;4822133;29;20047;-87
2023/07/11 00:09:47;;;;;;;0.22;0.20;;;17.50;4.70;;;;;;4800427;29;20060;-87
2023/07/11 00:12:14;;;;;;;0.00;0.00;;;17.40;1.00;;;;;;4800363;29;20129;-87
2023/07/11 00:14:39;;;;;;;;;;;17.50;1.00;;;;;;4803821;29;20049;-87
2023/07/11 00:17:05;;;;;;;0.10;0.10;;;17.50;1.00;;;;;;4815811;29;20298;-87
2023/07/11 00:19:53;;;;;;;0.20;0.17;;;17.60;1.00;;;;;;4814715;29;20125;-88
2023/07/11 00:22:22;;;;;;;0.20;0.20;;;17.60;1.00;;;;;;4816531;29;20089;-88
2023/07/11 00:24:49;;;;;;;0.10;0.10;;;17.70;1.00;;;;;;4836564;29;20484;-87
2023/07/11 00:27:17;;;;;;;0.15;0.15;;;17.70;1.00;;;;;;4833730;29;20038;-87
2023/07/11 00:29:43;;;;;;;0.25;0.13;;;17.70;1.00;;;;;;4799771;29;20054;-90
2023/07/11 00:32:09;;;;;;;0.35;0.35;;;17.70;1.00;;;;;;4795037;29;20054;-89
2023/07/11 00:34:35;;;;;;;0.30;0.15;;;17.70;1.00;;;;;;4812354;29;20046;-87
2023/07/11 00:37:01;;;;;;;0.20;0.20;;;17.60;1.00;;;;;;4816858;29;20125;-87
2023/07/11 00:39:28;;;;;;;0.22;0.17;;;17.60;1.00;;;;;;4822774;29;20100;-87
2023/07/11 00:41:54;;;;;;;0.05;0.05;;;17.60;1.00;;;;;;4793896;29;20058;-87
2023/07/11 00:44:20;;;;;;;0.00;0.00;;;17.60;1.00;;;;;;4794926;29;20377;-87
2023/07/11 00:46:46;;;;;;;1.60;0.22;;;17.60;1.00;;;;;;4815843;29;20516;-87
2023/07/11 00:49:15;;;;;;;0.20;0.20;;;17.50;1.00;;;;;;4832215;29;20145;-87
2023/07/11 00:51:48;;;;;;;0.10;0.10;;;17.50;1.00;;;;;;4823173;29;20510;-87
2023/07/11 00:54:17;;;;;;;0.08;0.08;;;17.50;1.00;;;;;;4798588;29;20495;-87
2023/07/11 00:56:45;;;;;;;0.03;0.03;;;17.50;1.00;;;;;;4813816;29;20054;-86
2023/07/11 00:59:14;;;;;;;0.15;0.15;;;17.60;1.00;;;;;;4809960;29;20058;-87
2023/07/11 01:01:41;;;;;;;0.10;0.10;;;17.50;1.00;;;;;;4814998;29;20057;-87
2023/07/11 01:04:07;;;;;;;0.30;0.10;;;17.50;1.00;;;;;;4815852;29;20195;-86
2023/07/11 01:06:33;;;;;;;0.32;0.20;;;17.60;1.00;;;;;;4819654;29;20137;-87
2023/07/11 01:09:01;;;;;;;0.17;0.17;;;17.60;1.00;;;;;;4813149;29;20140;-88
2023/07/11 01:11:30;;;;;;;0.20;0.20;;;17.60;1.00;;;;;;4818917;29;20407;-87
2023/07/11 01:13:56;;;;;;;0.00;0.00;;;17.70;1.00;;;;;;4809583;29;20050;-87
2023/07/11 01:16:22;;;;;;;0.08;0.08;;;17.70;1.00;;;;;;4830904;29;20050;-87
2023/07/11 01:18:48;;;;;;;0.32;0.32;;;17.70;1.00;;;;;;4813942;29;20057;-87
2023/07/11 01:21:17;;;;;;;;;;;17.60;1.00;;;;;;4801019;29;20062;-87
2023/07/11 01:23:43;;;;;;;0.30;0.30;;;17.60;4.10;;;;;;4811944;29;19924;-87
2023/07/11 01:26:11;;;;;;;0.10;0.10;;;17.60;1.00;;;;;;4816703;29;20051;-86
2023/07/11 01:28:39;;;;;;;0.10;0.10;;;17.50;1.00;;;;;;4801358;29;20061;-89
2023/07/11 01:31:05;;;;;;;0.30;0.30;;;17.40;1.80;;;;;;4832081;29;20511;-87
2023/07/11 01:33:32;;;;;;;0.45;0.28;;;17.40;4.30;;;;;;4814616;29;20415;-87
2023/07/11 01:35:58;;;;;;;0.10;0.10;;;17.30;12.10;;;;;;4799437;29;20057;-86
2023/07/11 01:38:25;;;;;;;0.40;0.10;;;17.30;16.70;;;;;;4838720;29;20060;-87
2023/07/11 01:40:50;;;;;;;0.03;0.03;;;17.30;19.60;;;;;;4814290;29;20383;-86
2023/07/11 01:43:18;;;;;;;0.63;0.40;;;17.20;21.40;;;;;;4816959;29;20133;-86
2023/07/11 01:45:44;;;;;;;0.20;0.20;;;17.20;20.50;;;;;;4832829;29;20053;-86
2023/07/11 01:48:10;;;;;;;0.17;0.17;;;17.10;23.70;;;;;;4817384;29;20111;-86
2023/07/11 01:50:36;;;;;;;0.10;0.10;;;17.10;29.00;;;;;;4821830;29;20050;-87
2023/07/11 01:53:02;;;;;;;0.10;0.10;;;17.00;34.80;;;;;;4816995;29;20054;-86
2023/07/11 01:55:27;;;;;;;0.03;0.03;;;17.00;36.00;;;;;;4798612;29;20057;-86
2023/07/11 01:57:53;;;;;;;0.55;0.20;;;17.00;36.70;;;;;;4810297;29;20133;-86
2023/07/11 02:00:19;;;;;;;0.20;0.20;;;17.00;41.70;;;;;;4839960;29;20081;-86
2023/07/11 02:02:45;;;;;;;0.00;0.00;;;16.90;42.40;;;;;;4805470;29;20145;-87
2023/07/11 02:05:14;;;;;;;0.30;0.13;;;16.90;44.50;;;;;;4834149;29;20133;-86
2023/07/11 02:07:40;;;;;;;0.10;0.10;;;16.90;44.40;;;;;;4817571;29;20073;-86
2023/07/11 02:10:09;;;;;;;1.35;0.68;;;16.80;45.50;;;;;;4833500;29;20089;-86
2023/07/11 02:12:35;;;;;;;0.13;0.13;;;16.80;46.00;;;;;;4809486;29;20086;-87
2023/07/11 02:15:01;;;;;;;0.10;0.10;;;16.80;49.30;;;;;;4805928;29;20070;-86
2023/07/11 02:17:26;;;;;;;1.30;0.20;;;16.80;50.30;;;;;;4818445;29;20042;-86
2023/07/11 02:19:52;;;;;;;0.10;0.10;;;16.70;51.70;;;;;;4824042;29;20050;-86
2023/07/11 02:22:18;;;;;;;0.20;0.20;;;16.70;53.40;;;;;;4820914;29;20133;-85
2023/07/11 02:24:44;;;;;;;0.28;0.20;;;16.70;55.00;;;;;;4832876;29;20407;-90
2023/07/11 02:27:09;;;;;;;0.10;0.10;;;16.90;53.80;;;;;;4829557;29;20050;-86
2023/07/11 02:29:35;;;;;;;0.17;0.17;;;16.60;53.30;;;;;;4830521;29;20077;-86
2023/07/11 02:32:01;;;;;;;0.00;0.00;;;16.60;53.00;;;;;;4808152;29;20050;-86
2023/07/11 02:34:27;;;;;;;0.40;0.40;;;16.60;50.20;;;;;;4796076;29;20400;-86
2023/07/11 02:36:53;;;;;;;0.08;0.08;;;16.60;54.50;;;;;;4818056;29;20055;-89
2023/07/11 02:39:19;;;;;;;0.10;0.10;;;16.60;55.20;;;;;;4811453;29;20038;-87
2023/07/11 02:41:44;;;;;;;0.70;0.10;;;16.60;53.80;;;;;;4824604;29;20132;-87
2023/07/11 02:44:10;;;;;;;0.38;0.20;;;16.60;52.20;;;;;;4834245;29;20101;-87
2023/07/11 02:46:37;;;;;;;0.28;0.17;;;16.70;55.10;;;;;;4818363;29;20138;-86
2023/07/11 02:49:03;;;;;;;0.28;0.25;;;16.60;51.00;;;;;;4837408;29;20194;-86
2023/07/11 02:51:29;;;;;;;0.20;0.20;;;16.70;51.40;;;;;;4812858;29;20090;-87
2023/07/11 02:53:55;;;;;;;0.13;0.13;;;16.70;55.90;;;;;;4815422;29;20046;-87
2023/07/11 02:56:21;;;;;;;0.28;0.28;;;16.70;56.10;;;;;;4796342;29;20054;-86
2023/07/11 02:58:49;;;;;;;0.20;0.20;;;16.70;54.00;;;;;;4796272;29;20050;-87
2023/07/11 03:01:15;;;;;;;0.32;0.20;;;16.70;53.00;;;;;;4817563;29;20057;-88
2023/07/11 03:03:41;;;;;;;0.47;0.30;;;16.70;51.70;;;;;;4813250;29;20062;-87
2023/07/11 03:06:07;;;;;;;0.28;0.28;;;16.80;54.70;;;;;;4796480;29;20338;-87
2023/07/11 03:08:32;;;;;;;0.20;0.20;;;16.80;56.00;;;;;;4809890;29;20133;-87
2023/07/11 03:11:00;;;;;;;0.15;0.15;;;16.80;56.10;;;;;;4824277;29;20053;-87
2023/07/11 03:13:26;;;;;;;0.25;0.25;;;16.80;59.00;;;;;;4798421;29;20093;-88
2023/07/11 03:15:52;;;;;;;0.17;0.17;;;16.80;57.10;;;;;;4813341;29;20392;-89
2023/07/11 03:18:18;;;;;;;0.68;0.28;;;16.70;56.60;;;;;;4814672;29;20042;-87
2023/07/11 03:20:44;;;;;;;0.20;0.20;;;16.70;56.20;;;;;;4812147;29;20134;-87
2023/07/11 03:23:13;;;;;;;0.40;0.20;;;16.70;56.00;;;;;;4836517;29;20168;-87
2023/07/11 03:25:39;;;;;;;0.20;0.20;;;16.70;59.80;;;;;;4817293;29;20056;-86
2023/07/11 03:28:05;;;;;;;0.30;0.30;;;16.70;60.40;;;;;;4828197;29;20398;-87
2023/07/11 03:30:34;;;;;;;0.20;0.20;;;16.70;58.20;;;;;;4812600;29;20579;-87
2023/07/11 03:33:00;;;;;;;0.10;0.10;;;16.70;59.00;;;;;;4799638;29;20057;-87
2023/07/11 03:35:26;;;;;;;0.22;0.22;;;16.70;62.30;;;;;;4795045;29;20051;-87
2023/07/11 03:37:52;;;;;;;0.20;0.20;;;16.70;64.40;;;;;;4829048;29;20425;-90
2023/07/11 03:40:18;;;;;;;0.40;0.30;;;16.70;65.80;;;;;;4831483;29;20101;-87
2023/07/11 03:42:44;;;;;;;0.88;0.30;;;16.70;64.50;;;;;;4817252;29;20099;-87
2023/07/11 03:45:10;;;;;;;0.50;0.50;;;16.70;65.40;;;;;;4819806;29;20078;-86
2023/07/11 03:47:35;;;;;;;0.17;0.17;;;16.70;66.10;;;;;;4814831;29;20129;-87
2023/07/11 03:50:01;;;;;;;0.10;0.10;;;16.70;67.50;;;;;;4805640;29;20102;-88
2023/07/11 03:52:27;;;;;;;0.63;0.20;;;16.70;68.30;;;;;;4829171;29;20149;-87
2023/07/11 03:54:52;;;;;;;0.32;0.32;;;16.80;70.70;;;;;;4816310;29;20062;-88
2023/07/11 03:57:21;;;;;;;0.17;0.17;;;16.80;69.80;;;;;;4825515;29;20109;-87
2023/07/11 03:59:47;;;;;;;0.40;0.22;;;16.80;68.60;;;;;;4812421;29;20387;-87
2023/07/11 04:02:12;;;;;;;0.20;0.20;;;16.80;69.10;;;;;;4817511;29;20078;-86
2023/07/11 04:04:38;;;;;;;0.30;0.30;;;16.80;70.50;;;;;;4803468;29;20160;-87
2023/07/11 04:07:04;;;;;;;0.20;0.20;;;16.90;73.20;;;;;;4796370;29;20054;-87
2023/07/11 04:09:30;;;;;;;;;;;16.90;74.30;;;;;;4835814;29;20517;-87
2023/07/11 04:11:56;;;;;;;0.20;0.20;;;16.90;86.60;;;;;;4816770;29;19932;-91
2023/07/11 04:14:22;;;;;;;0.30;0.30;;;16.90;76.30;;;;;;4811985;29;20050;-86
2023/07/11 04:16:47;;;;;;;0.20;0.20;;;16.80;75.60;;;;;;4811336;29;20049;-87
2023/07/11 04:19:13;;;;;;;0.43;0.30;;;16.90;74.40;;;;;;4822644;29;20049;-87
2023/07/11 04:21:39;;;;;;;0.20;0.20;;;16.80;72.10;;;;;;4812394;29;20141;-87
2023/07/11 04:24:05;;;;;;;0.37;0.30;;;16.80;72.40;;;;;;4819550;29;20106;-89
2023/07/11 04:26:31;;;;;;;0.25;0.22;;;16.80;75.60;;;;;;4807128;29;20843;-87
2023/07/11 04:28:56;;;;;;;0.20;0.20;;;16.80;75.10;;;;;;4792199;29;20062;-87
2023/07/11 04:31:22;;;;;;;0.30;0.30;;;16.80;74.60;;;;;;4818625;29;20812;-87
2023/07/11 04:33:48;;;;;;;0.93;0.40;;;16.80;77.80;;;;;;4800680;29;20058;-87
2023/07/11 04:36:15;;;;;;;0.30;0.30;;;16.70;76.30;;;;;;4831424;29;20046;-86
2023/07/11 04:38:41;;;;;;;0.40;0.40;;;16.70;76.80;;;;;;4813238;29;20050;-87
2023/07/11 04:41:07;;;;;;;0.40;0.40;;;16.70;77.20;;;;;;4813705;29;20070;-87
2023/07/11 04:43:33;;;;;;;0.50;0.50;;;16.80;78.40;;;;;;4812791;29;20081;-87
2023/07/11 04:46:00;;;;;;;0.50;0.50;;;16.80;77.40;;;;;;4799335;29;20130;-87
2023/07/11 04:48:26;;;;;;;0.43;0.43;;;16.90;79.90;;;;;;4812607;29;20110;-86
2023/07/11 04:50:57;;;;;;;0.30;0.30;;;16.90;78.40;;;;;;4803744;29;20050;-87
2023/07/11 04:53:23;;;;;;;0.57;0.40;;;17.00;79.60;;;;;;4814946;29;20054;-87
2023/07/11 04:55:57;;;;;;;0.50;0.50;;;17.10;79.00;;;;;;4811900;29;20129;-87
2023/07/11 04:58:24;;;;;;;0.40;0.40;;;17.20;83.50;;;;;;4812226;29;20046;-87
2023/07/11 05:00:50;;;;;;;0.68;0.52;;;17.30;77.20;;;;;;4819197;29;20054;-87
2023/07/11 05:03:16;;;;;;;0.40;0.40;;;17.30;76.90;;;;;;4831543;29;20049;-87
2023/07/11 05:05:42;;;;;;;0.52;0.52;;;17.40;78.20;;;;;;4817271;29;20050;-87
2023/07/11 05:08:08;;;;;;;0.50;0.38;;;17.60;76.00;;;;;;4821564;29;20107;-87
2023/07/11 05:10:34;;;;;;;0.43;0.43;;;17.70;76.60;;;;;;4816521;29;20042;-87
2023/07/11 05:12:59;;;;;;;0.40;0.40;;;17.80;75.00;;;;;;4801440;29;20514;-87
2023/07/11 05:15:25;;;;;;;0.30;0.30;;;18.10;71.10;;;;;;4798262;29;20587;-87
2023/07/11 05:17:51;;;;;;;0.55;0.35;;;18.50;58.60;;;;;;4808264;29;20298;-87
2023/07/11 05:20:16;;;;;;;1.90;0.60;;;19.20;37.10;;;;;;4819259;29;20053;-88
2023/07/11 05:22:42;;;;;;;0.60;0.47;;;19.80;1.00;;;;;;4808931;29;20066;-89
2023/07/11 05:25:08;;;;;;;0.82;0.55;;;20.20;1.00;;;;;;4814198;29;20072;-87
2023/07/11 05:27:34;;;;;;;0.90;0.68;;;20.40;1.00;;;;;;4819202;29;20048;-86
2023/07/11 05:29:59;;;;;;;0.55;0.55;;;20.40;1.00;;;;;;4817777;29;20066;-87
2023/07/11 05:32:25;;;;;;;0.70;0.70;;;20.10;1.00;;;;;;4819356;29;20050;-88
2023/07/11 05:34:51;;;;;;;0.60;0.38;;;19.90;1.00;;;;;;4833857;29;20057;-86
2023/07/11 05:37:17;;;;;;;0.47;0.47;;;19.70;1.00;;;;;;4801383;29;20050;-84
2023/07/11 05:39:42;;;;;;;0.38;0.35;;;19.50;1.00;;;;;;4823339;29;20042;-83
2023/07/11 05:42:09;;;;;;;0.50;0.50;;;19.40;1.00;;;;;;4830338;29;20053;-87
2023/07/11 05:44:35;;;;;;;1.10;0.73;;;19.40;1.00;;;;;;4818959;29;20058;-83
2023/07/11 05:47:00;;;;;;;0.65;0.55;;;19.50;1.00;;;;;;4803942;29;20080;-84
2023/07/11 05:49:26;;;;;;;0.93;0.93;;;19.60;1.00;;;;;;4834244;29;20879;-84
2023/07/11 05:51:52;;;;;;;0.57;0.57;;;19.60;1.00;;;;;;4830676;29;21580;-83
2023/07/11 05:54:18;;;;;;;0.40;0.40;;;19.70;1.00;;;;;;4822337;29;20067;-84
2023/07/11 05:56:44;;;;;;;0.60;0.60;;;19.70;1.00;;;;;;4801314;29;20069;-83
2023/07/11 05:59:10;;;;;;;0.50;0.50;;;19.80;1.00;;;;;;4830941;29;20523;-87
2023/07/11 06:01:36;;;;;;;0.47;0.47;;;19.80;1.00;;;;;;4824711;29;20054;-83
2023/07/11 06:04:14;;;;;;;0.40;0.40;;;19.90;1.00;;;;;;4794900;29;20492;-82
2023/07/11 06:06:43;;;;;;;0.80;0.50;;;19.90;1.00;;;;;;4811022;29;20062;-81
2023/07/11 06:09:11;;;;;;;0.50;0.50;;;20.00;1.00;;;;;;4824476;29;20054;-82
2023/07/11 06:11:37;;;;;;;0.47;0.47;;;20.10;1.00;;;;;;4825973;29;20092;-83
2023/07/11 06:14:03;;;;;;;0.88;0.88;;;20.20;1.00;;;;;;4826005;29;20085;-82
2023/07/11 06:16:29;;;;;;;0.55;0.55;;;20.40;1.00;;;;;;4813930;29;20120;-83
2023/07/11 06:18:55;;;;;;;0.77;0.47;;;20.50;1.00;;;;;;4814476;29;20057;-84
2023/07/11 06:21:21;;;;;;;0.38;0.30;;;20.70;1.00;;;;;;4838379;29;20145;-84
2023/07/11 06:23:47;;;;;;;1.08;0.93;;;20.80;1.00;;;;;;4842389;29;20097;-83
2023/07/11 06:26:14;;;;;;;0.75;0.75;;;20.90;1.00;;;;;;4808905;29;20093;-90
2023/07/11 06:28:40;;;;;;;0.40;0.38;;;21.00;1.00;;;;;;4808216;29;20518;-84
2023/07/11 06:31:06;;;;;;;;;;;21.10;1.00;;;;;;4809641;29;20058;-89
2023/07/11 06:33:32;;;;;;;0.30;0.30;;;21.10;99.90;;;;;;4829703;29;19955;-85
2023/07/11 06:35:58;;;;;;;0.30;0.30;;;21.20;1.00;;;;;;4806983;29;20384;-86
2023/07/11 06:38:24;;;;;;;0.43;0.38;;;21.30;1.00;;;;;;4799894;29;20042;-83
2023/07/11 06:40:51;;;;;;;0.32;0.32;;;21.30;1.00;;;;;;4816888;29;20062;-84
2023/07/11 06:43:18;;;;;;;0.20;0.20;;;21.40;1.00;;;;;;4807643;29;20050;-84
2023/07/11 06:45:48;;;;;;;0.47;0.47;;;21.50;1.00;;;;;;4826583;29;20085;-83
2023/07/11 06:48:15;;;;;;;0.88;0.85;;;21.60;99.90;;;;;;4808760;29;20467;-89
2023/07/11 06:51:11;;;;;;;0.20;0.20;;;21.60;99.90;;;;;;4835633;29;20121;-85
2023/07/11 06:53:37;;;;;;;0.32;0.30;;;22.30;99.90;;;;;;4822282;29;20157;-82
2023/07/11 06:56:03;;;;;;;0.45;0.45;;;21.60;99.90;;;;;;4825751;29;20129;-83
2023/07/11 06:58:29;;;;;;;0.35;0.35;;;21.50;99.90;;;;;;4814500;29;20046;-83
2023/07/11 07:01:01;;;;;;;0.50;0.50;;;21.60;99.90;;;;;;4812140;29;20072;-85
2023/07/11 07:03:27;;;;;;;0.28;0.28;;;21.60;99.90;;;;;;4843287;29;20065;-83
2023/07/11 07:05:56;;;;;;;0.55;0.55;;;20.70;99.90;;;;;;4812265;29;20049;-85
2023/07/11 07:08:23;;;;;;;0.35;0.35;;;21.60;99.90;;;;;;4822737;29;20046;-87
2023/07/11 07:10:50;;;;;;;0.45;0.43;;;21.60;99.90;;;;;;4794002;29;20054;-89
2023/07/11 07:13:17;;;;;;;0.68;0.40;;;21.60;99.90;;;;;;4813501;29;20054;-87
2023/07/11 07:15:50;;;;;;;0.40;0.40;;;21.70;99.90;;;;;;4796992;29;20061;-89
2023/07/11 07:18:18;;;;;;;0.68;0.50;;;21.70;99.90;;;;;;4820481;29;20054;-88
2023/07/11 07:20:45;;;;;;;0.20;0.20;;;21.80;99.90;;;;;;4814287;29;20408;-90
2023/07/11 07:23:13;;;;;;;1.08;0.77;;;21.80;99.90;;;;;;4793139;29;20058;-88
2023/07/11 07:25:39;;;;;;;;;;;21.80;99.90;;;;;;4823355;29;20053;-89
2023/07/11 07:28:07;;;;;;;0.50;0.40;;;21.90;99.90;;;;;;4793922;29;20011;-88
2023/07/11 07:30:36;;;;;;;0.50;0.50;;;22.00;99.90;;;;;;4828796;29;20077;-87
2023/07/11 07:33:05;;;;;;;0.50;0.50;;;22.10;99.90;;;;;;4823366;29;20090;-87
2023/07/11 07:35:31;;;;;;;0.47;0.40;;;22.30;99.90;;;;;;4818585;29;20050;-89
2023/07/11 07:37:56;;;;;;;0.65;0.57;;;22.00;99.90;;;;;;4818203;29;20057;-90
2023/07/11 07:40:22;;;;;;;0.22;0.22;;;22.40;98.20;;;;;;4809736;29;20050;-94
2023/07/11 07:42:50;;;;;;;0.40;0.40;;;22.40;99.90;;;;;;4808368;29;20046;-90
2023/07/11 07:45:18;;;;;;;0.45;0.35;;;22.50;99.90;;;;;;4812617;29;20046;-90
2023/07/11 07:47:47;;;;;;;0.45;0.45;;;22.50;99.90;;;;;;4812284;29;20515;-89
2023/07/11 07:50:13;;;;;;;0.40;0.40;;;22.50;1.00;;;;;;4828104;29;20094;-91
2023/07/11 07:52:38;;;;;;;0.90;0.63;;;22.50;1.00;;;;;;4811342;29;20419;-94
2023/07/11 07:55:04;;;;;;;0.40;0.40;;;22.40;99.70;;;;;;4801450;29;20050;-88
2023/07/11 07:57:30;;;;;;;1.65;0.70;;;22.50;99.90;;;;;;4816430;29;20050;-87
2023/07/11 07:59:56;;;;;;;0.35;0.35;;;22.50;99.90;;;;;;4814260;29;20050;-87
2023/07/11 08:02:22;;;;;;;0.30;0.30;;;22.50;99.90;;;;;;4811733;29;20046;-86
2023/07/11 08:04:48;;;;;;;0.30;0.30;;;22.70;99.90;;;;;;4812781;29;20572;-86
2023/07/11 08:07:16;;;;;;;0.45;0.45;;;22.70;99.90;;;;;;4804044;29;20384;-89
2023/07/11 08:09:42;;;;;;;0.30;0.30;;;22.70;1.00;;;;;;4804539;29;20054;-86
2023/07/11 08:12:10;;;;;;;0.70;0.70;;;22.70;99.90;;;;;;4818857;29;20050;-86
2023/07/11 08:14:40;;;;;;;1.23;0.43;;;22.80;99.00;;;;;;4831164;29;20051;-86
2023/07/11 08:17:10;;;;;;;1.00;0.90;;;22.40;45.00;;;;;;4790423;29;20390;-86
2023/07/11 08:19:37;;;;;;;0.30;0.30;;;22.90;1.00;;;;;;4805536;29;20049;-85
2023/07/11 08:22:02;;;;;;;;;;;22.90;1.00;;;;;;4836383;29;20567;-86
2023/07/11 08:24:28;;;;;;;1.00;0.30;;;23.00;99.90;;;;;;4824983;29;19974;-86
2023/07/11 08:26:54;;;;;;;0.30;0.30;;;23.10;1.00;;;;;;4815144;29;20050;-85
2023/07/11 08:29:20;;;;;;;0.77;0.50;;;23.30;1.00;;;;;;4823781;29;20110;-86
2023/07/11 08:31:46;;;;;;;1.17;0.50;;;23.40;1.00;;;;;;4808495;29;20459;-86
2023/07/11 08:34:12;;;;;;;0.73;0.73;;;23.50;1.00;;;;;;4817536;29;20054;-87
2023/07/11 08:36:38;;;;;;;0.30;0.30;;;23.50;99.90;;;;;;4811004;29;20106;-86
2023/07/11 08:39:04;;;;;;;;;;;23.40;1.00;;;;;;4827054;29;20376;-86
2023/07/11 08:41:41;;;;;;;0.20;0.20;;;23.50;99.90;;;;;;4826116;29;19934;-87
2023/07/11 08:44:35;;;;;;;0.35;0.30;;;23.50;99.90;;;;;;4826781;29;20050;-85
2023/07/11 08:47:23;;;;;;;0.45;0.45;;;23.70;99.90;;;;;;4813348;29;20054;-86
2023/07/11 08:50:08;;;;;;;0.30;0.30;;;23.80;99.90;;;;;;4807820;29;20075;-85
2023/07/11 08:52:35;;;;;;;0.65;0.43;;;23.80;99.90;;;;;;4830601;29;20054;-86
2023/07/11 08:55:25;;;;;;;0.40;0.40;;;23.90;99.90;;;;;;4826212;29;20053;-86
2023/07/11 08:58:05;;;;;;;0.10;0.10;;;24.00;99.90;;;;;;4816137;29;20390;-85
2023/07/11 09:00:32;;;;;;;0.20;0.20;;;24.00;1.00;;;;;;4842012;29;20049;-91
2023/07/11 09:03:09;;;;;;;0.35;0.35;;;24.00;1.00;;;;;;4829812;29;20046;-86
2023/07/11 09:05:43;;;;;;;0.30;0.30;;;24.00;1.00;;;;;;4815613;29;20050;-86
2023/07/11 09:08:18;;;;;;;0.38;0.38;;;24.00;99.90;;;;;;4821298;29;20149;-84
2023/07/11 09:11:30;;;;;;;0.20;0.15;;;24.00;99.90;;;;;;4809604;29;20122;-86
2023/07/11 09:14:34;;;;;;;0.20;0.20;;;24.10;99.90;;;;;;4796261;29;20519;-87
2023/07/11 09:17:11;;;;;;;0.38;0.32;;;24.20;99.90;;;;;;4810430;29;20118;-86
2023/07/11 09:20:01;;;;;;;0.50;0.50;;;24.20;1.00;;;;;;4836026;29;20049;-86
2023/07/11 09:22:45;;;;;;;0.20;0.20;;;24.20;99.90;;;;;;4820324;29;20173;-85
2023/07/11 09:25:21;;;;;;;0.40;0.30;;;24.40;8.80;;;;;;4817918;29;20082;-85
2023/07/11 09:27:56;;;;;;;0.35;0.35;;;24.50;99.90;;;;;;4832304;29;20057;-85
2023/07/11 09:30:33;;;;;;;0.43;0.25;;;24.60;1.00;;;;;;4811420;29;20110;-86
2023/07/11 09:33:28;;;;;;;0.30;0.30;;;24.70;99.90;;;;;;4821114;29;20049;-87
2023/07/11 09:35:55;;;;;;;0.30;0.30;;;24.70;1.00;;;;;;4832332;29;20070;-85
2023/07/11 09:38:37;;;;;;;0.63;0.45;;;24.80;99.90;;;;;;4827955;29;20507;-89
2023/07/11 09:41:05;;;;;;;0.30;0.28;;;24.90;99.90;;;;;;4817465;29;20088;-92
2023/07/11 09:43:31;;;;;;;1.38;0.50;;;24.90;1.00;;;;;;4812750;29;20187;-90
2023/07/11 09:45:57;;;;;;;0.00;0.00;;;24.90;1.00;;;;;;4826919;29;20125;-89
2023/07/11 09:48:24;;;;;;;;;;;24.90;1.00;;;;;;4820619;29;20130;-88
2023/07/11 09:50:58;;;;;;;0.13;0.13;;;24.80;1.00;;;;;;4816459;29;19933;-90
2023/07/11 09:53:26;;;;;;;0.10;0.10;;;24.80;98.60;;;;;;4814581;29;20053;-86
2023/07/11 09:55:58;;;;;;;0.20;0.20;;;24.90;99.90;;;;;;4806717;29;20070;-91
2023/07/11 09:58:33;;;;;;;0.10;0.10;;;24.90;99.90;;;;;;4821574;29;20400;-92
2023/07/11 10:01:05;;;;;;;0.20;0.20;;;24.90;57.70;;;;;;4813616;29;20054;-89
2023/07/11 10:03:35;;;;;;;0.30;0.30;;;24.90;17.00;;;;;;4816618;29;20083;-87
2023/07/11 10:06:04;;;;;;;0.38;0.35;;;25.00;99.90;;;;;;4819711;29;20053;-87
2023/07/11 10:08:35;;;;;;;0.10;0.10;;;25.10;1.00;;;;;;4819282;29;20057;-89
2023/07/11 10:11:06;;;;;;;0.30;0.13;;;25.30;84.30;;;;;;4833442;29;20054;-89
2023/07/11 10:13:32;;;;;;;0.40;0.40;;;25.40;21.20;;;;;;4799576;29;20053;-88
2023/07/11 10:15:59;;;;;;;0.20;0.20;;;25.50;99.90;;;;;;4795953;29;20050;-90
2023/07/11 10:18:29;;;;;;;0.20;0.20;;;25.60;99.90;;;;;;4811628;29;20482;-89
2023/07/11 10:24:38;;;;;;;0.13;0.13;;;25.80;1.00;;;;;;4824225;29;20076;-89
2023/07/11 10:34:53;;;;;;;0.30;0.30;;;26.20;1.00;;;;;;4845276;29;20045;-87
2023/07/11 10:37:40;;;;;;;0.30;0.30;;;26.30;1.00;;;;;;4828763;29;20061;-88
2023/07/11 10:40:11;;;;;;;;;;;26.30;1.00;;;;;;4828935;29;20054;-89
2023/07/11 10:43:26;;;;;;;0.28;0.28;;;26.30;1.00;;;;;;4826719;29;19932;-90
2023/07/11 10:46:23;;;;;;;0.77;0.77;;;26.40;1.00;;;;;;4814335;29;20054;-89
2023/07/11 10:48:53;;;;;;;0.15;0.15;;;26.50;2.60;;;;;;4824731;29;20141;-89
2023/07/11 10:51:29;;;;;;;0.20;0.20;;;26.60;23.20;;;;;;4828355;29;20403;-87
2023/07/11 10:54:12;;;;;;;0.20;0.20;;;26.60;1.00;;;;;;4843144;29;20093;-87
2023/07/11 10:56:42;;;;;;;0.40;0.40;;;26.80;1.00;;;;;;4828095;29;20076;-87
2023/07/11 10:59:16;;;;;;;1.20;0.43;;;26.80;1.00;;;;;;4827531;29;20049;-88
2023/07/11 11:02:01;;;;;;;0.60;0.40;;;27.00;1.00;;;;;;4812618;29;20055;-88
2023/07/11 11:04:54;;;;;;;0.38;0.30;;;27.10;1.00;;;;;;4811250;29;20082;-84
2023/07/11 11:07:39;;;;;;;0.20;0.20;;;27.20;1.00;;;;;;4809255;29;20058;-85
2023/07/11 11:10:27;;;;;;;0.80;0.50;;;27.20;1.00;;;;;;4808572;29;20403;-85
2023/07/11 11:13:26;;;;;;;0.30;0.30;;;27.20;1.00;;;;;;4824821;29;20102;-87
2023/07/11 11:16:00;;;;;;;0.40;0.40;;;27.10;1.00;;;;;;4790980;29;20063;-88
2023/07/11 11:18:35;;;;;;;0.10;0.10;;;27.00;1.00;;;;;;4824755;29;20050;-90
2023/07/11 11:21:24;;;;;;;0.25;0.25;;;27.00;1.00;;;;;;4808939;29;20384;-90
2023/07/11 11:35:09;;;;;;;0.20;0.20;;;27.10;1.00;;;;;;4825054;29;20180;-91
2023/07/11 11:38:04;;;;;;;0.32;0.28;;;27.10;1.00;;;;;;4782754;29;20066;-92
2023/07/11 11:40:35;;;;;;;0.50;0.25;;;27.10;1.00;;;;;;4809048;29;20052;-88
2023/07/11 11:43:11;;;;;;;0.20;0.20;;;27.30;1.00;;;;;;4808132;29;20103;-88
2023/07/11 11:45:39;;;;;;;0.45;0.30;;;27.30;1.00;;;;;;4808202;29;20050;-86
2023/07/11 11:48:18;;;;;;;0.75;0.32;;;27.50;1.00;;;;;;4807866;29;20137;-90
2023/07/11 11:50:46;;;;;;;0.17;0.17;;;27.50;1.00;;;;;;4808207;29;20179;-91
2023/07/11 11:53:45;;;;;;;;;;;;;;;;;;;;;
2023/07/11 11:56:20;;;;;;;0.17;0.10;;;27.70;99.90;;;;;;4808070;29;20089;-92
2023/07/11 11:59:12;;;;;;;0.20;0.20;;;27.60;99.90;;;;;;4793067;29;20088;-91
2023/07/11 12:01:55;;;;;;;0.20;0.20;;;26.70;99.90;;;;;;4808290;29;20149;-90
2023/07/11 12:04:27;;;;;;;0.25;0.25;;;27.50;99.90;;;;;;4822829;29;20050;-85
2023/07/11 12:07:19;;;;;;;0.55;0.55;;;27.50;99.90;;;;;;4821676;29;20061;-87
2023/07/11 12:09:46;;;;;;;0.15;0.15;;;27.60;99.90;;;;;;4787151;29;20065;-88
2023/07/11 12:12:15;;;;;;;0.20;0.20;;;27.70;99.90;;;;;;4807336;29;20376;-87
2023/07/11 12:14:53;;;;;;;0.40;0.40;;;27.70;99.90;;;;;;4807764;29;20050;-87
2023/07/11 12:17:34;;;;;;;0.32;0.32;;;27.60;99.90;;;;;;4807424;29;20073;-87
2023/07/11 12:19:59;;;;;;;1.48;0.32;;;27.60;99.90;;;;;;4807083;29;20094;-87
2023/07/11 12:22:52;;;;;;;0.47;0.38;;;27.70;99.90;;;;;;4807707;29;20524;-87
2023/07/11 12:25:29;;;;;;;1.23;0.25;;;27.60;99.90;;;;;;4799264;29;20050;-86
2023/07/11 12:27:56;;;;;;;0.28;0.28;;;27.50;99.90;;;;;;4807200;29;20146;-87
2023/07/11 12:30:40;;;;;;;0.25;0.25;;;27.40;99.90;;;;;;4822747;29;20086;-87
2023/07/11 12:33:33;;;;;;;0.55;0.55;;;27.40;99.90;;;;;;4807126;29;20452;-87
2023/07/11 12:36:39;;;;;;;0.20;0.20;;;27.40;99.90;;;;;;4807126;29;20238;-88
2023/07/11 12:39:27;;;;;;;0.40;0.40;;;27.40;99.90;;;;;;4807073;29;20405;-87
2023/07/11 12:42:15;;;;;;;0.22;0.22;;;27.40;99.90;;;;;;4807747;29;20046;-87
2023/07/11 12:44:42;;;;;;;0.30;0.30;;;27.50;99.90;;;;;;4807532;29;20058;-87
2023/07/11 12:47:13;;;;;;;0.20;0.20;;;27.40;99.90;;;;;;4792053;29;20137;-87
2023/07/11 12:49:42;;;;;;;0.20;0.20;;;27.30;99.90;;;;;;4807398;29;20504;-87
2023/07/11 12:52:14;;;;;;;0.30;0.30;;;27.30;99.90;;;;;;4807024;29;20102;-87
2023/07/11 12:54:41;;;;;;;0.40;0.30;;;27.20;99.90;;;;;;4807452;29;20062;-87
2023/07/11 12:57:16;;;;;;;0.30;0.30;;;27.20;99.90;;;;;;4791755;29;20522;-87
2023/07/11 12:59:43;;;;;;;0.10;0.10;;;27.30;99.90;;;;;;4807251;29;20082;-87
2023/07/11 13:02:13;;;;;;;0.30;0.30;;;27.30;99.90;;;;;;4806813;29;20051;-87
2023/07/11 13:04:53;;;;;;;0.30;0.30;;;27.30;99.90;;;;;;4807401;29;20054;-87
2023/07/11 13:07:24;;;;;;;0.28;0.20;;;27.20;99.90;;;;;;4822067;29;20042;-87
2023/07/11 13:09:59;;;;;;;0.88;0.63;;;27.20;99.90;;;;;;4807403;29;20051;-87
2023/07/11 13:12:31;;;;;;;0.30;0.30;;;27.20;99.90;;;;;;4806998;29;20080;-87
2023/07/11 13:15:14;;;;;;;0.20;0.20;;;27.20;99.90;;;;;;4807336;29;20514;-87
2023/07/11 13:17:41;;;;;;;0.47;0.38;;;27.10;99.90;;;;;;4807356;29;20058;-87
2023/07/11 13:20:25;;;;;;;0.38;0.30;;;27.00;99.90;;;;;;4806686;29;20061;-88
2023/07/11 13:22:52;;;;;;;0.40;0.40;;;27.00;99.90;;;;;;4810842;29;20058;-87
2023/07/11 13:25:38;;;;;;;0.10;0.10;;;26.90;99.90;;;;;;4794543;29;20058;-87
2023/07/11 13:28:18;;;;;;;0.32;0.32;;;26.70;99.90;;;;;;4810304;29;20100;-89
2023/07/11 13:30:44;;;;;;;0.35;0.30;;;26.70;99.90;;;;;;4810622;29;20063;-88
2023/07/11 13:33:16;;;;;;;0.20;0.20;;;26.70;99.90;;;;;;4795057;29;20061;-88